Time;durP1;ratioP1;P1;durP2;ratioP2;P2;SDS_P1;SDS_P2;PMS_P1;PMS_P2;Temp;Humidity;BMP_temperature;BMP_pressure;BME280_temperature;BME280_humidity;BME280_pressure;Samples;Min_cycle;Max_cycle;Signal;HPM_P1;HPM_P2
2022/08/28 00:01:42;;;;;;;2.88;1.38;;;16.80;99.90;;;;;;5074336;28;20111;-72
2022/08/28 00:04:09;;;;;;;6.82;1.95;;;17.00;99.90;;;;;;5074375;28;20024;-72
2022/08/28 00:06:37;;;;;;;2.42;1.77;;;17.00;99.90;;;;;;5074801;28;20026;-71
2022/08/28 00:09:06;;;;;;;4.07;1.95;;;17.00;99.90;;;;;;5074228;28;20484;-71
2022/08/28 00:11:37;;;;;;;2.92;1.85;;;17.20;99.90;;;;;;5056630;28;20036;-72
2022/08/28 00:14:07;;;;;;;3.20;2.03;;;17.40;99.90;;;;;;5074414;28;20024;-72
2022/08/28 00:16:35;;;;;;;3.05;1.65;;;17.40;99.90;;;;;;5072603;28;20550;-72
2022/08/28 00:19:03;;;;;;;3.42;1.65;;;17.40;99.90;;;;;;5072663;28;20431;-73
2022/08/28 00:21:33;;;;;;;;;;;17.40;99.90;;;;;;5074389;28;20029;-72
2022/08/28 00:24:01;;;;;;;3.22;1.38;;;17.60;99.90;;;;;;5073834;28;20388;-72
2022/08/28 00:29:13;;;;;;;3.53;1.65;;;17.70;99.90;;;;;;5074247;28;20089;-73
2022/08/28 00:31:41;;;;;;;3.30;1.38;;;17.60;99.90;;;;;;5072463;28;20030;-73
2022/08/28 00:34:09;;;;;;;3.20;1.27;;;17.60;99.90;;;;;;5072571;28;20400;-73
2022/08/28 00:36:40;;;;;;;3.30;1.20;;;17.70;99.90;;;;;;5072411;28;20042;-72
2022/08/28 00:39:09;;;;;;;2.50;1.30;;;17.90;99.90;;;;;;5072367;28;20027;-73
2022/08/28 00:41:39;;;;;;;3.75;1.17;;;18.10;99.90;;;;;;5072374;28;20029;-72
2022/08/28 00:44:15;;;;;;;2.15;1.25;;;18.30;99.90;;;;;;5073862;28;20085;-72
2022/08/28 00:46:45;;;;;;;2.75;1.10;;;18.20;99.90;;;;;;5073512;28;20099;-73
2022/08/28 00:49:15;;;;;;;4.60;1.40;;;18.20;99.90;;;;;;5072409;28;20354;-74
2022/08/28 00:54:32;;;;;;;3.05;1.10;;;18.30;99.90;;;;;;5072469;28;20047;-73
2022/08/28 00:57:03;;;;;;;2.83;1.10;;;18.50;99.90;;;;;;5073769;28;20090;-72
2022/08/28 00:59:31;;;;;;;2.45;1.20;;;18.70;99.90;;;;;;5073462;28;20052;-73
2022/08/28 01:01:59;;;;;;;3.92;0.90;;;19.00;99.90;;;;;;5072147;28;20048;-75
2022/08/28 01:04:31;;;;;;;2.75;0.88;;;19.00;99.90;;;;;;5072462;28;20032;-73
2022/08/28 01:07:00;;;;;;;1.50;0.63;;;18.60;99.90;;;;;;5072575;28;20028;-73
2022/08/28 01:09:31;;;;;;;2.13;0.68;;;18.40;99.90;;;;;;5073962;28;20021;-73
2022/08/28 01:12:05;;;;;;;2.42;1.00;;;18.90;99.90;;;;;;5073539;28;20028;-74
2022/08/28 01:14:35;;;;;;;2.47;0.60;;;19.20;99.90;;;;;;5055962;28;20024;-73
2022/08/28 01:17:04;;;;;;;3.53;0.68;;;19.30;99.90;;;;;;5073658;28;20032;-73
2022/08/28 01:19:36;;;;;;;1.73;0.47;;;19.50;99.90;;;;;;5073567;28;20028;-74
2022/08/28 01:22:15;;;;;;;2.15;0.50;;;19.30;99.90;;;;;;5072161;28;20020;-74
2022/08/28 01:24:44;;;;;;;1.13;0.70;;;19.30;99.90;;;;;;5072272;28;20028;-74
2022/08/28 01:27:12;;;;;;;2.60;0.45;;;19.40;99.90;;;;;;5074857;28;20384;-73
2022/08/28 01:29:40;;;;;;;1.98;0.50;;;19.60;99.90;;;;;;5077986;28;20020;-73
2022/08/28 01:32:07;;;;;;;1.23;0.38;;;19.70;99.90;;;;;;5076089;28;20028;-73
2022/08/28 01:34:35;;;;;;;1.55;0.38;;;19.60;99.90;;;;;;5077519;28;20024;-74
2022/08/28 01:37:02;;;;;;;2.10;0.30;;;19.80;99.90;;;;;;5077439;28;20027;-74
2022/08/28 01:39:30;;;;;;;1.83;0.30;;;19.60;99.90;;;;;;5077388;28;20025;-73
2022/08/28 01:41:59;;;;;;;1.45;0.30;;;19.60;99.90;;;;;;5076124;28;20017;-73
2022/08/28 01:44:29;;;;;;;1.00;0.30;;;19.70;99.90;;;;;;5077154;28;20499;-73
2022/08/28 01:46:59;;;;;;;1.60;0.30;;;19.50;99.90;;;;;;5076448;28;20035;-73
2022/08/28 01:49:28;;;;;;;2.15;0.40;;;19.50;99.90;;;;;;5043057;28;20037;-73
2022/08/28 01:51:56;;;;;;;1.17;0.30;;;19.60;99.90;;;;;;5075337;28;20033;-73
2022/08/28 01:54:25;;;;;;;2.08;0.57;;;19.80;99.90;;;;;;5077147;28;20029;-75
2022/08/28 01:56:52;;;;;;;1.20;0.35;;;20.00;99.90;;;;;;5075620;28;20032;-73
2022/08/28 01:59:21;;;;;;;2.45;0.57;;;19.80;99.90;;;;;;5077244;28;20035;-74
2022/08/28 02:01:48;;;;;;;2.47;0.40;;;19.80;99.90;;;;;;5076455;28;20481;-73
2022/08/28 02:04:16;;;;;;;0.80;0.30;;;19.80;99.90;;;;;;5076036;28;20037;-73
2022/08/28 02:06:43;;;;;;;3.85;0.50;;;19.80;99.90;;;;;;5076594;28;20082;-75
2022/08/28 02:09:11;;;;;;;1.92;0.57;;;19.90;99.90;;;;;;5075899;28;20115;-75
2022/08/28 02:11:41;;;;;;;4.60;0.85;;;19.90;99.90;;;;;;5077163;28;20029;-75
2022/08/28 02:14:09;;;;;;;4.95;0.90;;;20.10;99.90;;;;;;5077224;28;20093;-74
2022/08/28 02:16:36;;;;;;;4.55;1.25;;;20.10;99.90;;;;;;5075611;28;20036;-74
2022/08/28 02:19:04;;;;;;;3.03;0.80;;;20.10;99.90;;;;;;5075791;28;20047;-74
2022/08/28 02:21:32;;;;;;;1.92;0.77;;;20.20;99.90;;;;;;5075516;28;20021;-73
2022/08/28 02:23:59;;;;;;;2.42;0.90;;;20.20;99.90;;;;;;5076728;28;20384;-73
2022/08/28 02:26:27;;;;;;;1.85;0.60;;;20.20;99.90;;;;;;5077074;28;20028;-77
2022/08/28 02:28:54;;;;;;;4.43;2.38;;;20.20;99.90;;;;;;5075274;28;20024;-74
2022/08/28 02:31:21;;;;;;;2.55;0.65;;;20.30;99.90;;;;;;5077135;28;20388;-77
2022/08/28 02:33:50;;;;;;;2.50;0.93;;;20.20;99.90;;;;;;5076917;28;20105;-77
2022/08/28 02:36:18;;;;;;;3.05;0.88;;;20.30;99.90;;;;;;5075681;28;20029;-75
2022/08/28 02:38:47;;;;;;;2.05;0.40;;;20.20;99.90;;;;;;5074540;28;20111;-75
2022/08/28 02:41:14;;;;;;;1.17;0.40;;;20.10;99.90;;;;;;5076052;28;20021;-75
2022/08/28 02:43:41;;;;;;;1.77;0.30;;;19.90;99.90;;;;;;5077188;28;20028;-75
2022/08/28 02:46:09;;;;;;;1.30;0.50;;;20.20;99.90;;;;;;5075173;28;20028;-73
2022/08/28 02:48:39;;;;;;;0.95;0.40;;;20.20;99.90;;;;;;5075253;28;20058;-74
2022/08/28 02:51:10;;;;;;;2.45;0.20;;;20.30;99.90;;;;;;5075130;28;20032;-74
2022/08/28 02:53:38;;;;;;;2.10;0.40;;;20.20;99.90;;;;;;5074777;28;20049;-75
2022/08/28 02:56:07;;;;;;;1.85;0.43;;;20.40;99.90;;;;;;5075149;28;20021;-73
2022/08/28 02:58:35;;;;;;;2.75;0.55;;;20.50;99.90;;;;;;5058881;28;20070;-73
2022/08/28 03:01:05;;;;;;;2.03;0.47;;;20.40;99.90;;;;;;5076314;28;20428;-75
2022/08/28 03:03:33;;;;;;;2.95;0.40;;;20.20;99.90;;;;;;5074799;28;20388;-73
2022/08/28 03:06:02;;;;;;;1.83;0.28;;;20.30;99.90;;;;;;5076783;28;20428;-78
2022/08/28 03:08:30;;;;;;;1.75;0.40;;;20.30;99.90;;;;;;5059270;28;20024;-75
2022/08/28 03:10:58;;;;;;;1.98;0.40;;;20.20;99.90;;;;;;5077052;28;20031;-78
2022/08/28 03:13:27;;;;;;;2.33;0.30;;;20.20;99.90;;;;;;5075685;28;20024;-78
2022/08/28 03:15:55;;;;;;;0.77;0.20;;;20.30;99.90;;;;;;5076292;28;20115;-80
2022/08/28 03:18:24;;;;;;;0.90;0.20;;;20.10;99.90;;;;;;5077688;28;20031;-80
2022/08/28 03:20:54;;;;;;;2.25;0.40;;;20.10;99.90;;;;;;5060243;28;20098;-80
2022/08/28 03:23:28;;;;;;;1.27;0.30;;;20.30;99.90;;;;;;5077461;28;20016;-79
2022/08/28 03:26:11;;;;;;;0.70;0.20;;;20.30;99.90;;;;;;5060611;28;20050;-79
2022/08/28 03:28:46;;;;;;;1.00;0.20;;;20.30;99.90;;;;;;5075908;28;20028;-79
2022/08/28 03:31:17;;;;;;;2.15;0.38;;;20.10;99.90;;;;;;5076881;28;20538;-80
2022/08/28 03:33:46;;;;;;;0.88;0.30;;;20.20;99.90;;;;;;5077268;28;20568;-79
2022/08/28 03:36:20;;;;;;;0.80;0.28;;;20.20;99.90;;;;;;5076248;28;20032;-83
2022/08/28 03:38:49;;;;;;;1.77;0.65;;;20.30;99.90;;;;;;5076611;28;20496;-80
2022/08/28 03:41:18;;;;;;;0.77;0.20;;;20.00;99.90;;;;;;5076834;28;20074;-80
2022/08/28 03:43:46;;;;;;;1.23;0.35;;;20.00;99.90;;;;;;5075415;28;20060;-78
2022/08/28 03:46:16;;;;;;;0.80;0.20;;;20.00;99.90;;;;;;5076722;28;20047;-82
2022/08/28 03:48:44;;;;;;;1.85;0.30;;;20.30;99.90;;;;;;5077277;28;20035;-79
2022/08/28 03:51:16;;;;;;;2.58;0.70;;;20.40;99.90;;;;;;5078549;28;20323;-80
2022/08/28 03:53:44;;;;;;;0.90;0.30;;;20.60;99.90;;;;;;5076556;28;20068;-78
2022/08/28 03:56:20;;;;;;;2.80;0.50;;;20.40;99.90;;;;;;5076892;28;20489;-83
2022/08/28 03:58:51;;;;;;;1.98;0.55;;;20.20;99.90;;;;;;5077467;28;20460;-79
2022/08/28 04:01:19;;;;;;;1.33;0.32;;;20.40;99.90;;;;;;5075953;28;20453;-83
2022/08/28 04:03:47;;;;;;;2.08;0.30;;;20.20;99.90;;;;;;5076867;28;20455;-78
2022/08/28 04:06:15;;;;;;;3.85;0.60;;;20.20;99.90;;;;;;5076752;28;20039;-78
2022/08/28 04:08:42;;;;;;;2.92;0.70;;;20.20;99.90;;;;;;5074941;28;20480;-78
2022/08/28 04:11:09;;;;;;;2.22;0.60;;;20.20;99.90;;;;;;5075806;28;20496;-75
2022/08/28 04:13:37;;;;;;;1.88;0.40;;;20.10;99.90;;;;;;5075893;28;20029;-78
2022/08/28 04:16:11;;;;;;;1.75;0.35;;;20.30;99.90;;;;;;5073668;28;20484;-76
2022/08/28 04:18:41;;;;;;;1.63;0.32;;;20.50;99.90;;;;;;5074974;28;20085;-75
2022/08/28 04:21:15;;;;;;;2.45;0.50;;;20.70;99.90;;;;;;5074773;28;20024;-76
2022/08/28 04:23:43;;;;;;;1.25;0.45;;;20.40;99.90;;;;;;5074571;28;20043;-79
2022/08/28 04:26:14;;;;;;;1.55;0.40;;;20.50;99.90;;;;;;5075598;28;20024;-78
2022/08/28 04:28:42;;;;;;;2.17;0.60;;;20.40;99.90;;;;;;5075421;28;20530;-78
2022/08/28 04:31:10;;;;;;;1.88;0.40;;;20.50;99.90;;;;;;5075283;28;20133;-78
2022/08/28 04:33:38;;;;;;;2.22;0.40;;;20.50;99.90;;;;;;5073818;28;20027;-76
2022/08/28 04:36:11;;;;;;;2.17;0.70;;;20.40;99.90;;;;;;5072909;28;20035;-75
2022/08/28 04:38:40;;;;;;;2.90;0.40;;;20.40;99.90;;;;;;5072975;28;20085;-75
2022/08/28 04:41:11;;;;;;;2.53;0.50;;;20.50;99.90;;;;;;5074045;28;20069;-76
2022/08/28 04:43:39;;;;;;;1.42;0.32;;;20.30;99.90;;;;;;5073390;28;20536;-76
2022/08/28 04:46:10;;;;;;;1.95;0.40;;;20.30;99.90;;;;;;5073164;28;20035;-74
2022/08/28 04:48:39;;;;;;;1.85;0.50;;;20.40;99.90;;;;;;5056942;28;20020;-76
2022/08/28 04:51:10;;;;;;;2.33;0.60;;;20.30;99.90;;;;;;5073561;28;20049;-75
2022/08/28 04:53:38;;;;;;;1.02;0.30;;;20.10;99.90;;;;;;5072673;28;20281;-76
2022/08/28 04:56:09;;;;;;;2.40;0.95;;;20.20;99.90;;;;;;5073013;28;20017;-76
2022/08/28 04:58:37;;;;;;;;;;;20.20;99.90;;;;;;5074340;28;20074;-75
2022/08/28 05:01:14;;;;;;;1.73;0.40;;;19.90;99.90;;;;;;5073675;28;19952;-74
2022/08/28 05:03:41;;;;;;;1.77;0.70;;;19.80;99.90;;;;;;5072466;28;20101;-72
2022/08/28 05:06:11;;;;;;;2.67;0.63;;;19.70;99.90;;;;;;5072379;28;20021;-74
2022/08/28 05:08:39;;;;;;;0.70;0.50;;;19.70;99.90;;;;;;5073509;28;20044;-74
2022/08/28 05:11:20;;;;;;;1.77;0.35;;;19.40;99.90;;;;;;5072920;28;20485;-74
2022/08/28 05:13:49;;;;;;;3.97;0.60;;;19.10;99.90;;;;;;5073904;28;20017;-74
2022/08/28 05:16:18;;;;;;;3.60;0.55;;;18.90;99.90;;;;;;5074209;28;20034;-76
2022/08/28 05:18:46;;;;;;;1.92;0.35;;;18.80;99.90;;;;;;5074101;28;20121;-73
2022/08/28 05:21:21;;;;;;;2.58;0.50;;;18.80;99.90;;;;;;5073807;28;20020;-74
2022/08/28 05:23:50;;;;;;;1.92;0.43;;;18.80;99.90;;;;;;5074132;28;20078;-73
2022/08/28 05:26:18;;;;;;;3.95;0.60;;;18.90;99.90;;;;;;5074324;28;20388;-74
2022/08/28 05:28:47;;;;;;;3.17;0.40;;;18.80;99.90;;;;;;5073560;28;20052;-72
2022/08/28 05:31:19;;;;;;;2.92;1.00;;;18.70;99.90;;;;;;5073915;28;20033;-75
2022/08/28 05:33:48;;;;;;;3.70;0.73;;;18.80;99.90;;;;;;5074027;28;20021;-72
2022/08/28 05:36:17;;;;;;;0.80;0.47;;;19.10;99.90;;;;;;5073610;28;20477;-73
2022/08/28 05:38:46;;;;;;;0.82;0.40;;;19.10;99.90;;;;;;5071900;28;20038;-72
2022/08/28 05:41:19;;;;;;;3.03;0.60;;;18.90;99.90;;;;;;5071868;28;20031;-70
2022/08/28 05:43:47;;;;;;;1.85;0.30;;;18.70;99.90;;;;;;5073358;28;20021;-72
2022/08/28 05:46:16;;;;;;;1.48;0.30;;;18.50;99.90;;;;;;5071927;28;20029;-73
2022/08/28 05:48:44;;;;;;;1.33;0.50;;;18.60;99.90;;;;;;5073218;28;20490;-72
2022/08/28 05:51:15;;;;;;;1.85;0.50;;;18.80;99.90;;;;;;5073436;28;20016;-72
2022/08/28 05:53:44;;;;;;;1.95;0.30;;;18.90;99.90;;;;;;5073059;28;20048;-72
2022/08/28 05:56:15;;;;;;;4.75;0.80;;;19.00;99.90;;;;;;5073208;28;20096;-73
2022/08/28 05:58:41;;;;;;;;;;;19.00;99.90;;;;;;5073812;28;20103;-72
2022/08/28 06:01:22;;;;;;;2.30;0.60;;;18.90;99.90;;;;;;5071931;28;19905;-72
2022/08/28 06:03:55;;;;;;;2.10;0.40;;;19.00;99.90;;;;;;5071895;28;20101;-70
2022/08/28 06:06:24;;;;;;;3.10;0.50;;;19.00;99.90;;;;;;5072408;28;20032;-72
2022/08/28 06:08:56;;;;;;;4.15;0.90;;;18.90;99.90;;;;;;5073017;28;20029;-72
2022/08/28 06:11:24;;;;;;;2.17;0.43;;;18.80;99.90;;;;;;5073119;28;20020;-71
2022/08/28 06:13:52;;;;;;;2.35;0.50;;;18.70;99.90;;;;;;5073231;28;20119;-71
2022/08/28 06:16:19;;;;;;;3.38;0.40;;;18.60;99.90;;;;;;5075996;28;20024;-71
2022/08/28 06:18:47;;;;;;;1.75;0.47;;;18.50;99.90;;;;;;5075140;28;20024;-71
2022/08/28 06:21:14;;;;;;;1.10;0.68;;;18.50;99.90;;;;;;5075589;28;20024;-70
2022/08/28 06:23:43;;;;;;;3.22;0.40;;;18.30;99.90;;;;;;5077206;28;20026;-71
2022/08/28 06:26:11;;;;;;;3.13;0.63;;;18.20;99.90;;;;;;5076885;28;20100;-71
2022/08/28 06:28:38;;;;;;;1.23;0.70;;;18.10;99.90;;;;;;5076294;28;20085;-70
2022/08/28 06:31:06;;;;;;;3.50;0.32;;;18.00;99.90;;;;;;5076164;28;20025;-71
2022/08/28 06:33:34;;;;;;;4.60;0.60;;;17.90;99.90;;;;;;5075368;28;20058;-71
2022/08/28 06:36:04;;;;;;;1.92;0.85;;;17.70;99.90;;;;;;5076694;28;20025;-69
2022/08/28 06:38:31;;;;;;;2.55;0.50;;;17.70;99.90;;;;;;5076638;28;20068;-70
2022/08/28 06:40:59;;;;;;;3.08;0.40;;;17.50;99.90;;;;;;5075816;28;20092;-70
2022/08/28 06:43:28;;;;;;;3.42;0.63;;;17.30;99.90;;;;;;5074851;28;20024;-71
2022/08/28 06:45:57;;;;;;;3.50;0.40;;;17.20;99.90;;;;;;5074901;28;20024;-71
2022/08/28 06:48:27;;;;;;;1.77;0.40;;;17.10;99.90;;;;;;5074647;28;20031;-71
2022/08/28 06:50:55;;;;;;;1.90;0.50;;;17.00;99.90;;;;;;5076071;28;20392;-70
2022/08/28 06:53:29;;;;;;;3.55;0.73;;;16.90;99.90;;;;;;5074419;28;20450;-71
2022/08/28 06:56:00;;;;;;;3.50;0.80;;;16.90;99.90;;;;;;5074457;28;20036;-71
2022/08/28 06:58:28;;;;;;;1.02;0.47;;;16.80;99.90;;;;;;5075950;28;20029;-71
2022/08/28 07:01:14;;;;;;;3.47;0.55;;;16.80;99.90;;;;;;5075618;28;20039;-70
2022/08/28 07:03:42;;;;;;;3.88;0.80;;;16.70;99.90;;;;;;5076078;28;20120;-71
2022/08/28 07:06:12;;;;;;;2.40;0.40;;;16.70;99.90;;;;;;5074512;28;20031;-70
2022/08/28 07:08:40;;;;;;;8.52;1.17;;;16.60;99.90;;;;;;5074215;28;20488;-74
2022/08/28 07:11:20;;;;;;;4.20;0.73;;;16.60;99.90;;;;;;5075643;28;20021;-73
2022/08/28 07:13:48;;;;;;;3.42;0.50;;;16.60;99.90;;;;;;5074613;28;20035;-70
2022/08/28 07:16:18;;;;;;;2.05;0.70;;;16.60;99.90;;;;;;5074294;28;20028;-71
2022/08/28 07:18:46;;;;;;;2.92;0.70;;;16.40;99.90;;;;;;5074269;28;20496;-70
2022/08/28 07:21:14;;;;;;;4.38;0.93;;;16.40;99.90;;;;;;5074088;28;20035;-70
2022/08/28 07:23:45;;;;;;;3.90;0.80;;;16.30;99.90;;;;;;5075462;28;20476;-71
2022/08/28 07:26:16;;;;;;;4.50;0.70;;;16.30;99.90;;;;;;5075168;28;20099;-70
2022/08/28 07:28:44;;;;;;;3.28;0.80;;;16.20;99.90;;;;;;5075685;28;20020;-70
2022/08/28 07:31:15;;;;;;;3.60;0.70;;;16.20;99.90;;;;;;5075434;28;20023;-72
2022/08/28 07:33:43;;;;;;;4.38;0.88;;;16.20;99.90;;;;;;5075188;28;20020;-72
2022/08/28 07:36:15;;;;;;;3.45;0.88;;;16.10;99.90;;;;;;5075252;28;20020;-69
2022/08/28 07:38:43;;;;;;;4.65;0.90;;;16.10;99.90;;;;;;5075271;28;20021;-72
2022/08/28 07:41:18;;;;;;;3.50;0.65;;;16.00;99.90;;;;;;5073751;28;20078;-70
2022/08/28 07:46:32;;;;;;;2.00;0.95;;;16.00;99.90;;;;;;5075800;28;20030;-71
2022/08/28 07:49:00;;;;;;;4.20;0.93;;;16.00;99.90;;;;;;5074986;28;20028;-70
2022/08/28 07:51:28;;;;;;;5.55;1.10;;;15.90;99.90;;;;;;5074672;28;20027;-71
2022/08/28 07:53:57;;;;;;;3.72;1.00;;;15.90;99.90;;;;;;5074414;28;20562;-71
2022/08/28 07:56:27;;;;;;;6.70;1.45;;;15.90;99.90;;;;;;5074288;28;20103;-71
2022/08/28 07:58:58;;;;;;;4.03;1.10;;;15.90;99.90;;;;;;5074809;28;20067;-72
2022/08/28 08:01:27;;;;;;;5.15;1.23;;;15.80;99.90;;;;;;5074899;28;20028;-71
2022/08/28 08:03:55;;;;;;;3.95;1.00;;;15.90;99.90;;;;;;5074394;28;20030;-70
2022/08/28 08:06:26;;;;;;;8.27;1.38;;;15.80;99.90;;;;;;5074160;28;20028;-75
2022/08/28 08:08:53;;;;;;;4.43;1.10;;;15.70;99.90;;;;;;5075679;28;20036;-78
2022/08/28 08:11:21;;;;;;;5.22;1.10;;;15.60;99.90;;;;;;5076151;28;20032;-76
2022/08/28 08:13:49;;;;;;;4.00;1.00;;;15.60;99.90;;;;;;5076571;28;20077;-73
2022/08/28 08:16:20;;;;;;;4.57;1.00;;;15.50;99.90;;;;;;5074037;28;20029;-74
2022/08/28 08:18:49;;;;;;;5.70;1.33;;;15.50;99.90;;;;;;5075113;28;20020;-76
2022/08/28 08:21:19;;;;;;;4.13;1.10;;;15.50;99.90;;;;;;5074028;28;20027;-75
2022/08/28 08:23:47;;;;;;;4.20;1.10;;;15.50;99.90;;;;;;5075791;28;20556;-75
2022/08/28 08:26:18;;;;;;;5.43;1.25;;;15.40;99.90;;;;;;5073955;28;20029;-75
2022/08/28 08:28:46;;;;;;;7.20;1.10;;;15.40;99.90;;;;;;5075481;28;20112;-75
2022/08/28 08:31:23;;;;;;;3.88;0.95;;;15.40;99.90;;;;;;5075282;28;20028;-74
2022/08/28 08:33:54;;;;;;;6.53;2.03;;;15.30;99.90;;;;;;5075256;28;20102;-74
2022/08/28 08:36:23;;;;;;;2.83;1.23;;;15.30;99.90;;;;;;5075027;28;20384;-74
2022/08/28 08:38:51;;;;;;;3.75;1.23;;;15.40;99.90;;;;;;5075359;28;20032;-75
2022/08/28 08:41:32;;;;;;;4.93;1.20;;;15.30;99.90;;;;;;5074523;28;20052;-73
2022/08/28 08:44:08;;;;;;;5.53;1.40;;;15.30;99.90;;;;;;5075529;28;20074;-74
2022/08/28 08:46:48;;;;;;;4.78;1.38;;;15.20;99.90;;;;;;5076265;28;20060;-75
2022/08/28 08:49:20;;;;;;;3.88;1.40;;;15.30;99.90;;;;;;5074265;28;20402;-73
2022/08/28 08:51:56;;;;;;;6.22;1.60;;;15.30;99.90;;;;;;5075073;28;20492;-73
2022/08/28 08:54:24;;;;;;;4.20;1.40;;;15.20;99.90;;;;;;5073695;28;20128;-74
2022/08/28 08:56:55;;;;;;;;;;;15.20;99.90;;;;;;5075418;28;20045;-74
2022/08/28 08:59:29;;;;;;;5.85;2.08;;;15.20;99.90;;;;;;5074539;28;19943;-73
2022/08/28 09:02:05;;;;;;;5.07;1.50;;;15.20;99.90;;;;;;5073675;28;20032;-73
2022/08/28 09:04:38;;;;;;;16.80;2.22;;;15.20;99.90;;;;;;5074674;28;20043;-75
2022/08/28 09:07:22;;;;;;;6.18;1.50;;;15.20;99.90;;;;;;5075523;28;20032;-75
2022/08/28 09:09:53;;;;;;;7.85;1.60;;;15.20;99.90;;;;;;5076596;28;20020;-74
2022/08/28 09:12:29;;;;;;;4.03;1.23;;;15.20;99.90;;;;;;5073900;28;20097;-75
2022/08/28 09:15:19;;;;;;;6.72;1.20;;;15.20;99.90;;;;;;5075538;28;20040;-75
2022/08/28 09:17:54;;;;;;;5.83;1.40;;;15.10;99.90;;;;;;5074616;28;20032;-74
2022/08/28 09:20:27;;;;;;;10.05;1.70;;;15.20;99.90;;;;;;5073021;28;20257;-74
2022/08/28 09:22:55;;;;;;;9.10;1.45;;;15.20;99.90;;;;;;5073104;28;20055;-74
2022/08/28 09:25:44;;;;;;;6.93;1.40;;;15.20;99.90;;;;;;5072695;28;20028;-74
2022/08/28 09:28:16;;;;;;;7.82;1.30;;;15.20;99.90;;;;;;5072865;28;20111;-74
2022/08/28 09:30:51;;;;;;;9.82;1.73;;;15.20;99.90;;;;;;5072900;28;20024;-72
2022/08/28 09:33:34;;;;;;;8.82;1.90;;;15.20;99.90;;;;;;5074534;28;20388;-73
2022/08/28 09:36:26;;;;;;;9.68;1.67;;;15.20;99.90;;;;;;5074030;28;20108;-73
2022/08/28 09:39:14;;;;;;;10.57;1.67;;;15.20;99.90;;;;;;5072803;28;20115;-74
2022/08/28 09:45:12;;;;;;;13.00;2.63;;;15.20;99.90;;;;;;5074171;28;20426;-72
2022/08/28 09:47:47;;;;;;;9.63;1.77;;;15.30;99.90;;;;;;5074162;28;20028;-73
2022/08/28 09:50:34;;;;;;;9.30;1.65;;;15.30;99.90;;;;;;5060757;28;20060;-73
2022/08/28 09:53:11;;;;;;;9.77;1.92;;;15.30;99.90;;;;;;5076478;28;20088;-72
2022/08/28 09:55:51;;;;;;;8.45;2.08;;;15.30;99.90;;;;;;5076629;28;20040;-75
2022/08/28 09:58:19;;;;;;;7.88;1.73;;;15.30;99.90;;;;;;5077916;28;20044;-73
2022/08/28 10:01:00;;;;;;;10.38;1.58;;;15.30;99.90;;;;;;5076376;28;20020;-72
2022/08/28 10:03:52;;;;;;;10.02;1.90;;;15.40;99.90;;;;;;5076613;28;20024;-73
2022/08/28 10:06:30;;;;;;;7.93;1.52;;;15.30;99.90;;;;;;5077911;28;20576;-74
2022/08/28 10:09:27;;;;;;;12.05;2.05;;;15.30;99.90;;;;;;5077793;28;20024;-73
2022/08/28 10:12:18;;;;;;;8.20;1.77;;;15.40;99.90;;;;;;5077406;28;20039;-73
2022/08/28 10:15:30;;;;;;;12.02;2.00;;;15.30;99.90;;;;;;5077543;28;20052;-72
2022/08/28 10:18:13;;;;;;;9.65;2.10;;;15.30;99.90;;;;;;5057619;28;20047;-71
2022/08/28 10:20:49;;;;;;;7.07;1.50;;;15.30;99.90;;;;;;5076076;28;20476;-73
2022/08/28 10:23:42;;;;;;;10.25;1.85;;;15.30;99.90;;;;;;5077458;28;20021;-71
2022/08/28 10:26:21;;;;;;;5.97;1.45;;;15.20;99.90;;;;;;5075506;28;20025;-72
2022/08/28 10:29:20;;;;;;;11.15;2.03;;;15.20;99.90;;;;;;5075642;28;20120;-72
2022/08/28 10:32:02;;;;;;;10.07;1.67;;;15.20;99.90;;;;;;5075981;28;20024;-72
2022/08/28 10:35:10;;;;;;;11.23;1.40;;;15.20;99.90;;;;;;5077240;28;20044;-73
2022/08/28 10:38:10;;;;;;;7.85;1.52;;;15.20;99.90;;;;;;5075667;28;20021;-74
2022/08/28 10:40:43;;;;;;;11.80;2.33;;;15.20;99.90;;;;;;5075609;28;20074;-72
2022/08/28 10:43:18;;;;;;;9.25;1.55;;;15.20;99.90;;;;;;5075469;28;20115;-73
2022/08/28 10:45:47;;;;;;;10.88;1.85;;;15.10;99.90;;;;;;5075483;28;20035;-73
2022/08/28 10:48:26;;;;;;;8.13;1.90;;;15.10;99.90;;;;;;5076420;28;20024;-73
2022/08/28 10:50:59;;;;;;;12.35;1.75;;;15.10;99.90;;;;;;5075922;28;20029;-73
2022/08/28 10:53:40;;;;;;;13.30;1.55;;;15.10;99.90;;;;;;5075925;28;20059;-73
2022/08/28 10:56:24;;;;;;;7.05;1.50;;;15.10;99.90;;;;;;5076753;28;20028;-74
2022/08/28 10:58:57;;;;;;;10.45;1.92;;;15.10;99.90;;;;;;5076018;28;20017;-72
2022/08/28 11:01:33;;;;;;;10.75;1.98;;;15.10;99.90;;;;;;5075342;28;20017;-72
2022/08/28 11:04:05;;;;;;;11.77;1.85;;;15.00;99.90;;;;;;5076582;28;20029;-72
2022/08/28 11:06:59;;;;;;;8.93;1.45;;;15.00;99.90;;;;;;5076495;28;20024;-72
2022/08/28 11:09:46;;;;;;;9.35;1.88;;;15.00;99.90;;;;;;5074040;28;20044;-72
2022/08/28 11:12:18;;;;;;;10.27;1.67;;;15.00;99.90;;;;;;5076164;28;20052;-72
2022/08/28 11:14:52;;;;;;;6.43;1.40;;;15.00;99.90;;;;;;5074371;28;20029;-73
2022/08/28 11:17:24;;;;;;;6.50;1.67;;;14.90;99.90;;;;;;5075799;28;20056;-72
2022/08/28 11:20:09;;;;;;;12.52;1.98;;;14.90;99.90;;;;;;5075787;28;20066;-73
2022/08/28 11:22:54;;;;;;;10.48;1.27;;;15.00;99.90;;;;;;5076106;28;20031;-71
2022/08/28 11:25:56;;;;;;;8.73;1.77;;;15.00;99.90;;;;;;5076125;28;20029;-73
2022/08/28 11:28:35;;;;;;;10.20;1.60;;;14.90;99.90;;;;;;5067404;28;20087;-72
2022/08/28 11:31:06;;;;;;;9.85;2.22;;;14.90;99.90;;;;;;5075604;28;20509;-72
2022/08/28 11:33:35;;;;;;;;;;;14.90;99.90;;;;;;5075800;28;20056;-72
2022/08/28 11:36:08;;;;;;;11.45;1.60;;;14.80;99.90;;;;;;5075951;28;19947;-72
2022/08/28 11:39:00;;;;;;;10.50;1.52;;;14.80;99.90;;;;;;5075391;28;20024;-72
2022/08/28 11:41:49;;;;;;;8.77;1.75;;;14.80;99.90;;;;;;5056439;28;20051;-73
2022/08/28 11:44:27;;;;;;;10.52;1.58;;;14.80;99.90;;;;;;5072088;28;20040;-72
2022/08/28 11:47:14;;;;;;;12.50;1.92;;;14.80;99.90;;;;;;5075419;28;20023;-73
2022/08/28 11:49:44;;;;;;;8.55;1.75;;;14.80;99.90;;;;;;5074745;28;20021;-72
2022/08/28 11:52:38;;;;;;;9.43;1.33;;;14.80;99.90;;;;;;5073453;28;20121;-72
2022/08/28 11:55:12;;;;;;;16.65;2.60;;;14.70;99.90;;;;;;5074793;28;20024;-72
2022/08/28 11:58:04;;;;;;;9.35;1.45;;;14.70;99.90;;;;;;5074720;28;20099;-73
2022/08/28 12:00:55;;;;;;;8.88;1.45;;;14.70;99.90;;;;;;5073534;28;20123;-73
2022/08/28 12:03:39;;;;;;;10.95;2.13;;;14.70;99.90;;;;;;5074781;28;20048;-72
2022/08/28 12:06:08;;;;;;;7.65;1.08;;;14.70;99.90;;;;;;5074567;28;20032;-71
2022/08/28 12:08:50;;;;;;;14.07;1.88;;;14.70;99.90;;;;;;5074330;28;20081;-72
2022/08/28 12:11:41;;;;;;;13.98;1.95;;;14.70;99.90;;;;;;5074102;28;20100;-72
2022/08/28 12:14:28;;;;;;;13.32;2.35;;;14.70;99.90;;;;;;5072852;28;20054;-72
2022/08/28 12:16:59;;;;;;;7.05;1.67;;;14.70;99.90;;;;;;5043776;28;20431;-72
2022/08/28 12:19:37;;;;;;;8.68;1.77;;;14.70;99.90;;;;;;5073096;28;20457;-72
2022/08/28 12:22:18;;;;;;;15.82;2.67;;;14.70;99.90;;;;;;5075282;28;20066;-71
2022/08/28 12:25:08;;;;;;;8.15;1.40;;;14.80;99.90;;;;;;5072980;28;20041;-71
2022/08/28 12:27:37;;;;;;;11.73;1.95;;;14.70;99.90;;;;;;5074588;28;20028;-71
2022/08/28 12:30:05;;;;;;;12.63;2.10;;;14.70;99.90;;;;;;5074541;28;20060;-71
2022/08/28 12:32:44;;;;;;;10.60;1.90;;;14.70;99.90;;;;;;5074378;28;20021;-72
2022/08/28 12:35:21;;;;;;;10.55;1.42;;;14.70;99.90;;;;;;5072890;28;20481;-72
2022/08/28 12:37:54;;;;;;;7.43;1.70;;;14.60;99.90;;;;;;5074311;28;20020;-72
2022/08/28 12:40:40;;;;;;;9.70;1.95;;;14.60;99.90;;;;;;5074290;28;20055;-72
2022/08/28 12:43:10;;;;;;;16.80;2.15;;;14.60;99.90;;;;;;5074971;28;20031;-72
2022/08/28 12:45:38;;;;;;;14.73;2.20;;;14.50;99.90;;;;;;5074583;28;20427;-71
2022/08/28 12:48:32;;;;;;;11.00;1.83;;;14.50;99.90;;;;;;5072918;28;20056;-72
2022/08/28 12:51:12;;;;;;;13.65;1.67;;;14.40;99.90;;;;;;5074218;28;20539;-72
2022/08/28 12:54:10;;;;;;;9.88;1.67;;;14.40;99.90;;;;;;5072550;28;20048;-73
2022/08/28 12:56:38;;;;;;;15.32;2.05;;;14.40;99.90;;;;;;5068973;28;20033;-72
2022/08/28 12:59:25;;;;;;;10.90;1.77;;;14.40;99.90;;;;;;5074381;28;20020;-72
2022/08/28 13:01:53;;;;;;;7.63;1.40;;;14.30;99.90;;;;;;5072541;28;20074;-72
2022/08/28 13:05:00;;;;;;;12.43;1.90;;;14.30;99.90;;;;;;5074129;28;20028;-71
2022/08/28 13:07:32;;;;;;;9.88;1.77;;;14.30;99.90;;;;;;5073164;28;20021;-71
2022/08/28 13:10:05;;;;;;;8.13;1.85;;;14.30;99.90;;;;;;5073327;28;20064;-72
2022/08/28 13:12:38;;;;;;;9.20;1.50;;;14.20;99.90;;;;;;5072349;28;20021;-72
2022/08/28 13:15:07;;;;;;;8.77;1.50;;;14.20;99.90;;;;;;5072312;28;20051;-72
2022/08/28 13:17:53;;;;;;;10.43;1.67;;;14.20;99.90;;;;;;5072285;28;20025;-72
2022/08/28 13:20:32;;;;;;;9.45;1.50;;;14.20;99.90;;;;;;5073623;28;20021;-73
2022/08/28 13:23:03;;;;;;;8.98;1.83;;;14.10;99.90;;;;;;5074511;28;20392;-72
2022/08/28 13:25:36;;;;;;;11.55;1.50;;;14.10;99.90;;;;;;5076401;28;20032;-72
2022/08/28 13:28:13;;;;;;;7.68;1.13;;;14.10;99.90;;;;;;5077756;28;20020;-72